18:49
Airports
History
Links
Donate
Help keep this website running!
PayPal
Bitcoin
This page is community maintained. The information is intended for PC simulator navigation or reference.
Always use approved charts for navigation.
LIEE
Cagliari Elmas
Cagliari Elmas (LIEE)
Cagliari, Sardegna, Italy (9122)
(C)
Lat/Lng:39° 15' 5.31" N / 9° 3' 15.45" E
39.251475 / 9.054291
Elevation:13'ft / 4mMSL
ID / ICAO:LIEE
Runways:1
Longest:14-32
Asphalt 2,784m / 9,135ft
Controlled:Yes
METAR18:20 GMT 2017-09-19
Altimeter: 30.03
Visibility: 6.2 statute miles
Wind: 12 knots (from 300°)
Temp: 20°c / 68°f
Humidity: 52.5%

METAR: LIEE 191820Z 30012KT 9999 FEW045 20/10 Q1017

(Powered by phpweather)
Airport Radio Frequencies
Ground: 121.6
Tower: 120.6, 122.1
Approach: 118.4, 118.75
Nearby VORs <50NM
Nearby NDBs
Runway 14 / 32
Dimensions:2784.2 x 45.1m 9135' x 148'ft
Surface:Asphalt
Edge Lights:Medium intensity
Runway 14 [A]Runway 32 [B]
Heading:138°TH 318°TH
Lat:
Lng:
39° 15' 38.92"N
9° 2' 36.48"E
39° 14' 31.7"N
9° 3' 54.41"E
ALS:ALSF-I
TDZ:Yes, lighted
User Notes and Comments
39° 15' 5.31" N / 9° 3' 15.45" E
Distance To
Airport ID:
Nearby Airports
(C) DECIMOMANNU 8.3 NM
LIED ( WX ) NNW 328°
(U) Oristano Fenosu 49.5 NM
LIER NNW 333°
(C) TORTOLI 57.0 NM
LIET NE 35°
(C) ALGHERO 103.6 NM
LIEA ( WX ) NNW 337°
(C) OLBIA COSTA SMERALDA 116.4 NM
LIEO ( WX ) NNE 12°
(U) SIDI AHMED AIR BASE 144.2 NM
DTTB SSE 163°
(C) Cavallo 146.6 NM
2051 N
VFR Chart
Flight Planning at SkyVector.com